createdAt,value
2019-03-10T00:00:00.726Z,6.80
2019-03-10T00:02:31.439Z,6.70
2019-03-10T00:05:01.648Z,6.70
2019-03-10T00:07:33.234Z,6.60
2019-03-10T00:10:05.673Z,6.60
2019-03-10T00:12:35.978Z,6.50
2019-03-10T00:15:06.909Z,6.50
2019-03-10T00:17:37.329Z,6.50
2019-03-10T00:20:07.996Z,6.50
2019-03-10T00:22:38.525Z,6.50
2019-03-10T00:25:09.549Z,6.50
2019-03-10T00:27:40.222Z,6.60
2019-03-10T00:30:10.646Z,6.60
2019-03-10T00:32:41.279Z,6.60
2019-03-10T00:35:11.561Z,6.60
2019-03-10T00:37:42.075Z,6.50
2019-03-10T00:40:49.193Z,6.50
2019-03-10T00:43:48.828Z,6.40
2019-03-10T00:46:48.456Z,6.50
2019-03-10T00:50:11.738Z,6.40
2019-03-10T00:52:58.052Z,6.40
2019-03-10T00:55:28.315Z,6.50
2019-03-10T00:57:58.562Z,6.50
2019-03-10T01:00:30.203Z,6.50
2019-03-10T01:03:00.763Z,6.40
2019-03-10T01:05:31.078Z,6.40
2019-03-10T01:08:01.290Z,6.30
2019-03-10T01:10:32.084Z,6.30
2019-03-10T01:13:03.295Z,6.30
2019-03-10T01:15:33.746Z,6.30
2019-03-10T01:18:04.679Z,6.30
2019-03-10T01:20:35.204Z,6.30
2019-03-10T01:23:05.478Z,6.20
2019-03-10T01:25:35.780Z,6.10
2019-03-10T01:28:06.110Z,6.00
2019-03-10T01:30:43.722Z,5.90
2019-03-10T01:33:50.198Z,5.70
2019-03-10T01:36:19.068Z,5.40
2019-03-10T01:38:49.400Z,5.20
2019-03-10T01:41:19.678Z,5.10
2019-03-10T01:43:49.989Z,5.00
2019-03-10T01:46:20.726Z,5.00
2019-03-10T01:48:51.034Z,4.90
2019-03-10T01:51:21.482Z,4.90
2019-03-10T01:53:51.785Z,5.00
2019-03-10T01:56:22.153Z,5.00
2019-03-10T01:58:52.487Z,5.00
2019-03-10T02:01:22.860Z,5.10
2019-03-10T02:03:53.156Z,5.10
2019-03-10T02:06:23.735Z,5.00
2019-03-10T02:08:54.068Z,5.10
2019-03-10T02:11:24.458Z,5.10
2019-03-10T02:13:54.730Z,5.10
2019-03-10T02:16:26.128Z,5.10
2019-03-10T02:18:56.522Z,5.10
2019-03-10T02:21:26.810Z,5.20
2019-03-10T02:23:57.100Z,5.20
2019-03-10T02:26:27.573Z,5.30
2019-03-10T02:28:58.985Z,5.30
2019-03-10T02:31:29.226Z,5.30
2019-03-10T02:33:59.654Z,5.30
2019-03-10T02:36:30.021Z,5.30
2019-03-10T02:39:00.274Z,5.40
2019-03-10T02:41:30.575Z,5.40
2019-03-10T02:44:12.486Z,5.50
2019-03-10T02:55:29.519Z,5.60
2019-03-10T02:57:59.825Z,5.50
2019-03-10T03:00:30.049Z,5.50
2019-03-10T03:03:00.345Z,5.50
2019-03-10T03:05:31.050Z,5.40
2019-03-10T03:08:02.099Z,5.30
2019-03-10T03:10:32.657Z,5.20
2019-03-10T03:13:02.913Z,5.10
2019-03-10T03:15:33.423Z,5.10
2019-03-10T03:18:03.797Z,5.00
2019-03-10T03:20:34.081Z,5.00
2019-03-10T03:23:04.324Z,4.90
2019-03-10T03:25:35.517Z,4.80
2019-03-10T03:28:05.825Z,4.80
2019-03-10T03:30:36.608Z,4.70
2019-03-10T03:33:07.350Z,4.70
2019-03-10T03:35:58.959Z,4.50
2019-03-10T03:38:35.785Z,4.40
2019-03-10T03:41:09.281Z,4.20
2019-03-10T03:43:39.529Z,4.20
2019-03-10T03:46:10.353Z,4.20
2019-03-10T03:48:40.603Z,4.20
2019-03-10T03:51:10.894Z,4.30
2019-03-10T03:53:41.209Z,4.30
2019-03-10T03:56:11.625Z,4.30
2019-03-10T03:58:41.813Z,4.40
2019-03-10T04:01:16.150Z,4.40
2019-03-10T04:03:46.408Z,4.40
2019-03-10T04:06:16.661Z,4.40
2019-03-10T04:08:46.884Z,4.40
2019-03-10T04:11:17.253Z,4.40
2019-03-10T04:13:47.518Z,4.40
2019-03-10T04:16:17.907Z,4.40
2019-03-10T04:18:48.516Z,4.40
2019-03-10T04:21:18.762Z,4.40
2019-03-10T04:23:49.423Z,4.40
2019-03-10T04:26:19.614Z,4.40
2019-03-10T04:28:50.371Z,4.40
2019-03-10T04:31:21.792Z,4.40
2019-03-10T04:33:52.022Z,4.40
2019-03-10T04:36:22.554Z,4.50
2019-03-10T04:38:52.848Z,4.50
2019-03-10T04:41:23.272Z,4.50
2019-03-10T04:43:53.494Z,4.50
2019-03-10T04:46:23.966Z,4.50
2019-03-10T04:48:54.190Z,4.60
2019-03-10T04:51:24.832Z,4.50
2019-03-10T04:53:55.118Z,4.50
2019-03-10T04:56:44.616Z,4.50
2019-03-10T04:59:16.071Z,4.50
2019-03-10T05:01:47.534Z,4.40
2019-03-10T05:04:18.016Z,4.30
2019-03-10T05:06:48.904Z,4.30
2019-03-10T05:09:20.271Z,4.30
2019-03-10T05:11:50.756Z,4.20
2019-03-10T05:14:20.986Z,4.20
2019-03-10T05:16:52.247Z,4.20
2019-03-10T05:19:22.522Z,4.20
2019-03-10T05:21:52.828Z,4.10
2019-03-10T05:24:23.131Z,4.10
2019-03-10T05:26:53.426Z,4.10
2019-03-10T05:29:23.594Z,4.10
2019-03-10T05:31:53.943Z,4.10
2019-03-10T05:34:24.194Z,4.20
2019-03-10T05:36:54.516Z,4.30
2019-03-10T05:39:24.762Z,4.30
2019-03-10T05:41:55.372Z,4.30
2019-03-10T05:44:25.612Z,4.30
2019-03-10T05:46:56.147Z,4.30
2019-03-10T05:49:26.401Z,4.40
2019-03-10T05:51:56.696Z,4.40
2019-03-10T05:54:27.418Z,4.50
2019-03-10T05:56:57.652Z,4.50
2019-03-10T05:59:28.162Z,4.50
2019-03-10T06:01:59.221Z,4.50
2019-03-10T06:04:29.447Z,4.50
2019-03-10T06:06:59.764Z,4.60
2019-03-10T06:09:30.081Z,4.70
2019-03-10T06:12:00.399Z,4.90
2019-03-10T06:14:30.626Z,4.90
2019-03-10T06:17:00.987Z,4.90
2019-03-10T06:19:31.250Z,5.00
2019-03-10T06:22:01.546Z,5.10
2019-03-10T06:24:31.787Z,5.10
2019-03-10T06:27:02.477Z,5.00
2019-03-10T06:29:32.680Z,5.00
2019-03-10T06:32:03.206Z,5.00
2019-03-10T06:34:33.524Z,5.00
2019-03-10T06:37:03.984Z,5.00
2019-03-10T06:39:34.238Z,5.10
2019-03-10T06:42:05.084Z,5.20
2019-03-10T06:44:35.268Z,5.20
2019-03-10T06:47:05.579Z,5.30
2019-03-10T06:49:35.896Z,5.20
2019-03-10T06:52:06.195Z,5.30
2019-03-10T06:54:36.739Z,5.20
2019-03-10T06:57:07.153Z,5.20
2019-03-10T06:59:37.591Z,5.10
2019-03-10T07:02:07.911Z,5.20
2019-03-10T07:04:38.371Z,5.20
2019-03-10T07:07:08.761Z,5.80
2019-03-10T07:09:39.183Z,7.40
2019-03-10T07:12:09.743Z,7.70
2019-03-10T07:14:40.015Z,6.30
2019-03-10T07:17:10.591Z,5.90
2019-03-10T07:19:40.861Z,5.90
2019-03-10T07:22:12.304Z,6.00
2019-03-10T07:24:42.577Z,5.90
2019-03-10T07:27:12.829Z,5.90
2019-03-10T07:30:14.076Z,5.90
2019-03-10T07:32:50.912Z,6.00
2019-03-10T07:35:35.132Z,5.90
2019-03-10T07:38:15.699Z,7.60
2019-03-10T07:41:11.203Z,7.60
2019-03-10T07:43:47.238Z,7.90
2019-03-10T07:46:39.439Z,6.30
2019-03-10T07:49:24.730Z,6.10
2019-03-10T07:52:20.275Z,5.90
2019-03-10T07:55:02.119Z,5.90
2019-03-10T07:57:54.090Z,5.90
2019-03-10T08:00:41.852Z,6.20
2019-03-10T08:03:34.158Z,6.10
2019-03-10T08:06:13.882Z,6.20
2019-03-10T08:08:55.622Z,6.30
2019-03-10T08:11:34.701Z,6.10
2019-03-10T08:14:22.947Z,6.20
2019-03-10T08:17:21.648Z,6.20
2019-03-10T08:20:10.041Z,7.30
2019-03-10T08:22:49.027Z,6.40
2019-03-10T08:25:56.342Z,6.30
2019-03-10T08:28:57.531Z,6.30
2019-03-10T08:32:05.242Z,6.20
2019-03-10T08:34:42.338Z,6.30
2019-03-10T08:37:22.795Z,6.40
2019-03-10T08:40:03.091Z,6.50
2019-03-10T08:42:50.934Z,6.50
2019-03-10T08:45:42.711Z,6.70
2019-03-10T08:48:26.953Z,6.80
2019-03-10T08:51:15.793Z,7.00
2019-03-10T08:54:07.722Z,7.20
2019-03-10T08:56:57.343Z,7.20
2019-03-10T08:59:46.571Z,7.20
2019-03-10T09:02:35.874Z,6.90
2019-03-10T09:05:13.910Z,7.20
2019-03-10T09:08:12.090Z,7.20
2019-03-10T09:11:07.363Z,7.70
2019-03-10T09:13:55.988Z,7.30
2019-03-10T09:16:33.006Z,7.10
2019-03-10T09:19:22.190Z,7.30
2019-03-10T09:22:14.647Z,7.10
2019-03-10T09:25:09.881Z,6.90
2019-03-10T09:27:57.888Z,7.10
2019-03-10T09:30:53.526Z,7.00
2019-03-10T09:33:46.154Z,7.00
2019-03-10T09:36:36.901Z,7.00
2019-03-10T09:39:19.159Z,7.20
2019-03-10T09:42:17.647Z,7.30
2019-03-10T09:45:03.078Z,7.40
2019-03-10T09:47:51.593Z,7.60
2019-03-10T09:50:30.204Z,7.70
2019-03-10T09:53:28.277Z,7.70
2019-03-10T09:56:16.175Z,7.60
2019-03-10T09:59:04.469Z,7.70
2019-03-10T10:01:56.144Z,7.80
2019-03-10T10:04:53.069Z,7.70
2019-03-10T10:07:54.555Z,7.70
2019-03-10T10:10:50.070Z,7.60
2019-03-10T10:13:38.037Z,7.60
2019-03-10T10:16:16.172Z,7.50
2019-03-10T10:18:52.655Z,7.40
2019-03-10T10:21:47.956Z,7.50
2019-03-10T10:24:52.211Z,7.40
2019-03-10T10:27:47.719Z,7.50
2019-03-10T10:30:31.745Z,7.60
2019-03-10T10:33:27.005Z,7.40
2019-03-10T10:36:15.024Z,7.30
2019-03-10T10:39:00.205Z,7.30
2019-03-10T10:42:04.849Z,7.40
2019-03-10T10:44:50.701Z,7.50
2019-03-10T10:47:45.703Z,7.30
2019-03-10T10:50:26.672Z,7.30
2019-03-10T10:53:14.850Z,7.50
2019-03-10T10:56:03.216Z,7.60
2019-03-10T10:58:57.554Z,7.70
2019-03-10T11:01:56.062Z,7.80
2019-03-10T11:04:48.185Z,7.80
2019-03-10T11:07:49.639Z,7.80
2019-03-10T11:10:31.447Z,7.70
2019-03-10T11:13:20.675Z,7.70
2019-03-10T11:16:11.507Z,7.80
2019-03-10T11:19:00.766Z,7.80
2019-03-10T11:21:49.263Z,7.80
2019-03-10T11:24:39.754Z,7.90
2019-03-10T11:27:47.553Z,8.00
2019-03-10T11:30:35.521Z,8.10
2019-03-10T11:33:18.689Z,8.20
2019-03-10T11:36:05.229Z,8.30
2019-03-10T11:38:55.229Z,8.20
2019-03-10T11:41:34.114Z,8.00
2019-03-10T11:44:20.484Z,8.00
2019-03-10T11:47:00.265Z,7.90
2019-03-10T11:50:07.915Z,8.10
2019-03-10T11:52:52.263Z,8.20
2019-03-10T11:55:39.409Z,8.40
2019-03-10T11:58:30.860Z,8.40
2019-03-10T12:01:13.339Z,8.20
2019-03-10T12:04:10.411Z,8.10
2019-03-10T12:07:02.611Z,8.10
2019-03-10T12:09:32.917Z,8.20
2019-03-10T12:12:03.202Z,8.10
2019-03-10T12:14:33.694Z,8.20
2019-03-10T12:17:04.061Z,8.10
2019-03-10T12:19:34.320Z,8.30
2019-03-10T12:22:06.208Z,8.60
2019-03-10T12:24:36.726Z,8.90
2019-03-10T12:27:07.330Z,9.10
2019-03-10T12:29:37.878Z,8.80
2019-03-10T12:32:08.780Z,8.90
2019-03-10T12:34:39.409Z,9.20
2019-03-10T12:37:09.778Z,8.80
2019-03-10T12:39:40.200Z,8.80
2019-03-10T12:42:10.467Z,8.80
2019-03-10T12:44:42.739Z,8.60
2019-03-10T12:47:13.119Z,8.70
2019-03-10T12:49:43.662Z,8.70
2019-03-10T12:52:15.094Z,8.70
2019-03-10T12:54:45.648Z,9.00
2019-03-10T12:57:15.887Z,9.00
2019-03-10T12:59:46.191Z,9.10
2019-03-10T13:02:16.464Z,9.00
2019-03-10T13:04:46.740Z,9.20
2019-03-10T13:07:16.934Z,9.40
2019-03-10T13:09:47.246Z,9.40
2019-03-10T13:12:17.410Z,9.10
2019-03-10T13:14:58.747Z,9.10
2019-03-10T13:17:19.682Z,9.10
2019-03-10T13:19:49.962Z,9.10
2019-03-10T13:22:20.278Z,9.20
2019-03-10T13:24:50.512Z,9.10
2019-03-10T13:27:20.990Z,9.20
2019-03-10T13:29:51.244Z,9.30
2019-03-10T13:32:21.552Z,9.40
2019-03-10T13:34:51.966Z,9.30
2019-03-10T13:37:22.250Z,9.40
2019-03-10T13:39:52.609Z,9.50
2019-03-10T13:42:23.243Z,9.40
2019-03-10T13:44:53.515Z,9.20
2019-03-10T13:47:23.832Z,9.20
2019-03-10T13:49:54.991Z,9.10
2019-03-10T13:52:26.631Z,9.20
2019-03-10T13:54:56.909Z,9.30
2019-03-10T13:57:27.236Z,9.20
2019-03-10T13:59:57.527Z,9.40
2019-03-10T14:02:28.101Z,9.40
2019-03-10T14:04:58.361Z,9.40
2019-03-10T14:07:28.704Z,9.20
2019-03-10T14:09:59.018Z,9.30
2019-03-10T14:12:29.481Z,9.30
2019-03-10T14:14:59.740Z,9.40
2019-03-10T14:17:30.106Z,9.40
2019-03-10T14:20:00.445Z,9.30
2019-03-10T14:22:30.762Z,9.30
2019-03-10T14:25:01.223Z,9.30
2019-03-10T14:27:31.574Z,9.30
2019-03-10T14:30:08.010Z,9.30
2019-03-10T14:32:38.819Z,9.40
2019-03-10T14:35:09.873Z,9.20
2019-03-10T14:37:40.187Z,9.30
2019-03-10T14:40:11.259Z,9.30
2019-03-10T14:42:41.732Z,9.30
2019-03-10T14:45:13.040Z,9.30
2019-03-10T14:47:43.707Z,9.40
2019-03-10T14:50:14.572Z,9.50
2019-03-10T14:52:47.822Z,9.50
2019-03-10T14:55:19.360Z,9.50
2019-03-10T14:57:49.880Z,9.50
2019-03-10T15:00:21.764Z,9.50
2019-03-10T15:02:52.471Z,9.60
2019-03-10T15:05:22.787Z,9.60
2019-03-10T15:07:53.284Z,9.50
2019-03-10T15:10:23.589Z,9.40
2019-03-10T15:12:54.291Z,9.60
2019-03-10T15:15:24.560Z,9.60
2019-03-10T15:17:55.039Z,9.50
2019-03-10T15:20:25.338Z,9.50
2019-03-10T15:22:55.659Z,9.50
2019-03-10T15:25:25.940Z,9.50
2019-03-10T15:27:56.211Z,9.40
2019-03-10T15:30:26.701Z,9.40
2019-03-10T15:32:57.119Z,9.30
2019-03-10T15:35:27.370Z,9.20
2019-03-10T15:37:58.067Z,9.20
2019-03-10T15:40:28.342Z,9.20
2019-03-10T15:42:58.728Z,9.30
2019-03-10T15:45:28.983Z,9.20
2019-03-10T15:47:59.534Z,9.20
2019-03-10T15:50:29.819Z,9.10
2019-03-10T15:53:00.345Z,9.20
2019-03-10T15:55:30.892Z,9.10
2019-03-10T15:58:03.832Z,9.10
2019-03-10T16:00:33.277Z,9.10
2019-03-10T16:03:03.564Z,9.00
2019-03-10T16:05:38.343Z,9.10
2019-03-10T16:08:09.005Z,9.10
2019-03-10T16:10:39.239Z,9.00
2019-03-10T16:13:09.538Z,9.00
2019-03-10T16:15:39.820Z,9.10
2019-03-10T16:18:10.085Z,9.00
2019-03-10T16:20:40.726Z,9.00
2019-03-10T16:23:11.001Z,8.80
2019-03-10T16:25:41.463Z,8.70
2019-03-10T16:28:11.823Z,8.70
2019-03-10T16:30:42.075Z,8.70
2019-03-10T16:33:12.354Z,8.50
2019-03-10T16:35:42.676Z,8.50
2019-03-10T16:38:12.919Z,8.60
2019-03-10T16:40:43.733Z,8.60
2019-03-10T16:43:14.264Z,8.60
2019-03-10T16:45:44.664Z,8.50
2019-03-10T16:48:14.958Z,8.50
2019-03-10T16:50:45.371Z,8.50
2019-03-10T16:53:15.651Z,8.40
2019-03-10T16:55:45.996Z,8.50
2019-03-10T16:58:17.868Z,8.50
2019-03-10T17:00:48.559Z,8.60
2019-03-10T17:03:18.896Z,8.50
2019-03-10T17:05:49.347Z,8.50
2019-03-10T17:08:19.632Z,8.30
2019-03-10T17:10:49.985Z,8.20
2019-03-10T17:13:20.472Z,8.50
2019-03-10T17:15:50.833Z,8.40
2019-03-10T17:18:21.233Z,8.50
2019-03-10T17:20:51.988Z,8.60
2019-03-10T17:23:22.222Z,8.30
2019-03-10T17:25:53.732Z,8.20
2019-03-10T17:28:24.056Z,7.80
2019-03-10T17:30:54.366Z,7.40
2019-03-10T17:33:24.637Z,7.10
2019-03-10T17:35:55.362Z,6.90
2019-03-10T17:38:25.687Z,6.80
2019-03-10T17:40:56.491Z,6.60
2019-03-10T17:43:28.742Z,6.50
2019-03-10T17:45:59.325Z,6.40
2019-03-10T17:48:29.619Z,6.50
2019-03-10T17:51:00.386Z,6.50
2019-03-10T17:53:30.626Z,6.60
2019-03-10T17:56:01.232Z,6.60
2019-03-10T17:58:33.826Z,6.60
2019-03-10T18:01:04.690Z,6.70
2019-03-10T18:03:35.490Z,6.70
2019-03-10T18:06:06.000Z,6.80
2019-03-10T18:08:36.466Z,6.70
2019-03-10T18:11:06.860Z,6.70
2019-03-10T18:13:37.266Z,6.70
2019-03-10T18:16:07.826Z,6.80
2019-03-10T18:18:38.322Z,6.70
2019-03-10T18:21:08.748Z,6.80
2019-03-10T18:23:39.417Z,6.80
2019-03-10T18:26:09.753Z,6.70
2019-03-10T18:28:40.034Z,6.80
2019-03-10T18:31:10.459Z,6.70
2019-03-10T18:33:40.817Z,6.70
2019-03-10T18:36:11.193Z,6.70
2019-03-10T18:38:41.575Z,6.70
2019-03-10T18:41:11.874Z,6.80
2019-03-10T18:43:42.209Z,6.70
2019-03-10T18:46:12.510Z,6.70
2019-03-10T18:48:42.804Z,6.70
2019-03-10T18:51:13.081Z,6.60
2019-03-10T18:53:44.522Z,6.60
2019-03-10T18:56:14.982Z,6.60
2019-03-10T18:58:45.421Z,6.70
2019-03-10T19:01:16.030Z,6.70
2019-03-10T19:03:46.413Z,6.70
2019-03-10T19:06:16.736Z,6.70
2019-03-10T19:08:48.375Z,6.60
2019-03-10T19:11:18.689Z,6.50
2019-03-10T19:13:49.015Z,6.50
2019-03-10T19:16:19.302Z,6.50
2019-03-10T19:18:49.631Z,6.50
2019-03-10T19:21:19.921Z,6.50
2019-03-10T19:23:50.238Z,6.50
2019-03-10T19:26:20.568Z,6.40
2019-03-10T19:28:50.887Z,6.40
2019-03-10T19:31:21.251Z,6.50
2019-03-10T19:33:51.589Z,6.40
2019-03-10T19:36:21.897Z,6.40
2019-03-10T19:38:52.311Z,6.40
2019-03-10T19:41:22.599Z,6.40
2019-03-10T19:43:53.274Z,6.40
2019-03-10T19:46:24.650Z,6.40
2019-03-10T19:48:55.576Z,6.40
2019-03-10T19:51:25.876Z,6.50
2019-03-10T19:53:57.373Z,6.40
2019-03-10T19:56:27.639Z,6.40
2019-03-10T19:58:58.109Z,6.30
2019-03-10T20:01:28.332Z,6.30
2019-03-10T20:03:59.040Z,6.30
2019-03-10T20:06:29.651Z,6.30
2019-03-10T20:09:01.450Z,6.40
2019-03-10T20:11:33.673Z,6.30
2019-03-10T20:14:04.021Z,6.10
2019-03-10T20:16:34.348Z,6.10
2019-03-10T20:19:04.996Z,6.10
2019-03-10T20:21:35.214Z,6.00
2019-03-10T20:24:05.750Z,6.00
2019-03-10T20:26:36.043Z,6.00
2019-03-10T20:29:06.562Z,6.10
2019-03-10T20:31:36.951Z,6.10
2019-03-10T20:34:07.293Z,6.10
2019-03-10T20:36:37.543Z,5.70
2019-03-10T20:39:09.011Z,5.70
2019-03-10T20:41:40.779Z,5.80
2019-03-10T20:44:11.734Z,5.90
2019-03-10T20:46:42.334Z,5.90
2019-03-10T20:49:13.070Z,5.90
2019-03-10T20:51:43.642Z,6.00
2019-03-10T20:54:14.109Z,6.10
2019-03-10T20:56:44.326Z,6.20
2019-03-10T20:59:14.566Z,6.10
2019-03-10T21:01:45.535Z,6.10
2019-03-10T21:04:15.856Z,6.20
2019-03-10T21:06:46.246Z,6.10
2019-03-10T21:09:16.601Z,5.90
2019-03-10T21:11:46.996Z,5.80
2019-03-10T21:14:17.343Z,6.00
2019-03-10T21:16:48.594Z,5.90
2019-03-10T21:19:19.300Z,6.10
2019-03-10T21:21:49.521Z,6.10
2019-03-10T21:24:20.185Z,6.00
2019-03-10T21:26:50.528Z,5.80
2019-03-10T21:29:21.646Z,5.50
2019-03-10T21:31:51.911Z,5.50
2019-03-10T21:34:22.504Z,5.60
2019-03-10T21:36:52.810Z,5.60
2019-03-10T21:39:33.909Z,5.80
2019-03-10T21:41:56.163Z,5.80
2019-03-10T21:44:27.291Z,5.90
2019-03-10T21:46:57.896Z,6.00
2019-03-10T21:49:28.263Z,6.00
2019-03-10T21:51:58.566Z,5.90
2019-03-10T21:54:29.089Z,6.00
2019-03-10T21:56:59.362Z,6.10
2019-03-10T21:59:29.636Z,6.10
2019-03-10T22:01:59.933Z,6.00
2019-03-10T22:04:30.820Z,6.00
2019-03-10T22:07:01.174Z,6.00
2019-03-10T22:09:31.536Z,5.90
2019-03-10T22:12:01.880Z,5.80
2019-03-10T22:14:32.186Z,5.80
2019-03-10T22:17:02.470Z,5.70
2019-03-10T22:19:33.178Z,5.60
2019-03-10T22:22:03.431Z,5.70
2019-03-10T22:24:33.891Z,5.60
2019-03-10T22:27:04.125Z,5.70
2019-03-10T22:29:35.508Z,5.70
2019-03-10T22:32:05.818Z,5.70
2019-03-10T22:34:36.268Z,5.70
2019-03-10T22:37:06.627Z,5.70
2019-03-10T22:39:38.498Z,5.70
2019-03-10T22:42:09.141Z,5.60
2019-03-10T22:44:40.204Z,5.50
2019-03-10T22:47:10.627Z,5.50
2019-03-10T22:49:40.994Z,5.40
2019-03-10T22:52:11.227Z,5.40
2019-03-10T22:54:41.641Z,5.30
2019-03-10T22:57:11.911Z,5.40
2019-03-10T22:59:42.530Z,5.40
2019-03-10T23:02:12.972Z,5.40
2019-03-10T23:04:43.591Z,5.40
2019-03-10T23:07:13.855Z,5.40
2019-03-10T23:09:44.139Z,5.50
2019-03-10T23:12:15.175Z,5.60
2019-03-10T23:14:45.513Z,5.70
2019-03-10T23:17:15.929Z,5.60
2019-03-10T23:19:46.210Z,5.50
2019-03-10T23:22:16.513Z,5.40
2019-03-10T23:24:46.914Z,5.30
2019-03-10T23:27:17.260Z,5.40
2019-03-10T23:29:47.587Z,5.50
2019-03-10T23:32:18.212Z,5.50
2019-03-10T23:34:48.487Z,5.50
2019-03-10T23:37:18.753Z,5.50
2019-03-10T23:39:49.467Z,5.40
2019-03-10T23:42:20.168Z,5.50
2019-03-10T23:44:50.601Z,5.40
2019-03-10T23:47:20.871Z,5.60
2019-03-10T23:49:51.285Z,5.60
2019-03-10T23:52:21.557Z,5.50
2019-03-10T23:54:52.854Z,5.50
2019-03-10T23:57:23.068Z,5.40
2019-03-10T23:59:53.407Z,5.30
